Time;durP1;ratioP1;P1;durP2;ratioP2;P2;SDS_P1;SDS_P2;PMS_P1;PMS_P2;Temp;Humidity;BMP_temperature;BMP_pressure;BME280_temperature;BME280_humidity;BME280_pressure;Samples;Min_cycle;Max_cycle;Signal;HPM_P1;HPM_P2
2021/05/16 00:02:14;;;;;;;57.37;2.40;;;10.20;1.00;;;;;;5072241;28;20465;-66
2021/05/16 00:04:40;;;;;;;57.17;2.37;;;10.30;1.00;;;;;;5072378;28;20922;-65
2021/05/16 00:07:06;;;;;;;57.17;2.60;;;10.30;1.00;;;;;;5072520;28;20452;-65
2021/05/16 00:09:33;;;;;;;56.97;2.40;;;10.30;1.00;;;;;;5072320;28;20965;-65
2021/05/16 00:12:00;;;;;;;57.27;2.60;;;10.30;1.00;;;;;;5071589;28;20575;-66
2021/05/16 00:14:27;;;;;;;57.17;2.23;;;10.30;1.00;;;;;;5072233;28;20529;-65
2021/05/16 00:16:54;;;;;;;58.00;3.20;;;10.30;1.00;;;;;;5072248;28;20523;-65
2021/05/16 00:19:21;;;;;;;57.37;2.30;;;10.30;1.00;;;;;;5071874;28;20482;-66
2021/05/16 00:21:48;;;;;;;57.17;2.50;;;10.30;1.00;;;;;;5092576;28;20549;-65
2021/05/16 00:24:15;;;;;;;57.40;2.27;;;10.40;1.00;;;;;;5092296;28;20448;-66
2021/05/16 00:26:41;;;;;;;57.23;2.23;;;10.40;1.00;;;;;;5092392;28;20924;-65
2021/05/16 00:29:07;;;;;;;56.97;2.13;;;10.40;1.00;;;;;;5092109;28;20858;-65
2021/05/16 00:31:34;;;;;;;56.97;2.20;;;10.50;1.00;;;;;;5092166;28;20471;-66
2021/05/16 00:34:00;;;;;;;57.10;2.20;;;10.50;1.00;;;;;;5091652;28;20823;-65
2021/05/16 00:36:28;;;;;;;57.20;2.30;;;10.60;1.00;;;;;;5092008;28;20528;-65
2021/05/16 00:38:56;;;;;;;57.17;2.13;;;10.70;1.00;;;;;;5091836;28;21016;-65
2021/05/16 00:41:23;;;;;;;56.97;2.30;;;10.70;1.00;;;;;;5091726;28;20835;-66
2021/05/16 00:43:49;;;;;;;57.27;2.50;;;10.70;1.00;;;;;;5091603;28;20450;-66
2021/05/16 00:46:15;;;;;;;57.00;2.17;;;10.70;1.00;;;;;;5091980;28;20568;-65
2021/05/16 00:48:42;;;;;;;56.93;2.37;;;10.70;1.00;;;;;;5091925;28;20535;-66
2021/05/16 00:51:10;;;;;;;57.07;2.10;;;10.80;1.00;;;;;;5088435;28;20558;-65
2021/05/16 00:53:37;;;;;;;57.07;2.10;;;10.80;1.00;;;;;;5091171;28;20481;-65
2021/05/16 00:56:05;;;;;;;57.10;2.17;;;10.80;1.00;;;;;;5091830;28;20532;-65
2021/05/16 00:58:31;;;;;;;57.00;2.10;;;10.80;1.00;;;;;;5091610;28;20450;-65
2021/05/16 01:00:58;;;;;;;57.30;2.30;;;10.70;1.00;;;;;;5091565;28;20469;-65
2021/05/16 01:03:27;;;;;;;57.47;2.50;;;10.60;1.00;;;;;;5091326;28;20498;-66
2021/05/16 01:05:53;;;;;;;57.27;2.23;;;10.50;1.00;;;;;;5091493;28;20853;-66
2021/05/16 01:08:19;;;;;;;57.17;2.37;;;10.30;1.00;;;;;;5091619;28;20531;-66
2021/05/16 01:10:47;;;;;;;57.33;2.37;;;10.20;1.00;;;;;;5091487;28;20480;-66
2021/05/16 01:13:14;;;;;;;57.13;2.50;;;10.10;1.00;;;;;;5091381;28;20498;-65
2021/05/16 01:15:42;;;;;;;57.37;2.37;;;10.00;1.00;;;;;;5091256;28;20929;-66
2021/05/16 01:18:09;;;;;;;57.20;2.50;;;9.90;1.00;;;;;;5091494;28;20453;-66
2021/05/16 01:20:38;;;;;;;57.40;2.50;;;9.80;1.00;;;;;;5091227;28;20549;-66
2021/05/16 01:23:08;;;;;;;57.10;2.20;;;9.80;1.00;;;;;;5074302;28;20465;-66
2021/05/16 01:25:37;;;;;;;57.30;2.40;;;9.70;1.00;;;;;;5087956;28;20564;-65
2021/05/16 01:28:04;;;;;;;57.37;2.43;;;9.70;1.00;;;;;;5091531;28;20480;-65
2021/05/16 01:30:31;;;;;;;57.30;2.30;;;9.70;1.00;;;;;;5091378;28;20529;-65
2021/05/16 01:32:57;;;;;;;57.27;2.37;;;9.70;1.00;;;;;;5091031;28;20446;-66
2021/05/16 01:35:24;;;;;;;57.17;2.27;;;9.70;1.00;;;;;;5091056;28;20528;-65
2021/05/16 01:37:51;;;;;;;57.17;2.20;;;9.70;1.00;;;;;;5091057;28;20536;-67
2021/05/16 01:40:20;;;;;;;57.13;2.30;;;9.70;1.00;;;;;;5091531;28;20449;-65
2021/05/16 01:42:48;;;;;;;57.17;2.30;;;9.70;1.00;;;;;;5091052;28;20540;-66
2021/05/16 01:45:16;;;;;;;57.40;2.30;;;9.70;1.00;;;;;;5090981;28;20533;-66
2021/05/16 01:47:42;;;;;;;57.20;2.30;;;9.70;1.00;;;;;;5091234;28;20514;-65
2021/05/16 01:50:11;;;;;;;57.17;2.40;;;9.80;1.00;;;;;;5090922;28;20531;-65
2021/05/16 01:52:40;;;;;;;57.07;2.70;;;9.80;1.00;;;;;;5089021;28;20950;-67
2021/05/16 01:55:08;;;;;;;57.20;2.40;;;9.80;1.00;;;;;;5090533;28;20525;-65
2021/05/16 01:57:35;;;;;;;57.03;2.10;;;9.80;1.00;;;;;;5091249;28;20809;-65
2021/05/16 02:00:02;;;;;;;56.97;2.50;;;9.80;1.00;;;;;;5091099;28;20532;-66
2021/05/16 02:02:29;;;;;;;57.27;2.60;;;9.80;1.00;;;;;;5090711;28;20583;-66
2021/05/16 02:04:57;;;;;;;57.10;2.40;;;9.80;1.00;;;;;;5090607;28;20567;-66
2021/05/16 02:07:23;;;;;;;57.07;2.40;;;9.80;1.00;;;;;;5091051;28;20540;-66
2021/05/16 02:09:51;;;;;;;57.03;2.33;;;9.90;1.00;;;;;;5092106;28;20452;-65
2021/05/16 02:12:18;;;;;;;57.17;2.43;;;9.90;1.00;;;;;;5094211;28;20572;-66
2021/05/16 02:14:46;;;;;;;57.07;2.40;;;10.00;1.00;;;;;;5094622;28;20480;-66
2021/05/16 02:17:13;;;;;;;57.23;2.50;;;10.10;1.00;;;;;;5094275;28;20501;-65
2021/05/16 02:19:40;;;;;;;57.30;2.50;;;10.10;1.00;;;;;;5094796;28;20570;-65
2021/05/16 02:22:06;;;;;;;57.07;2.23;;;10.10;1.00;;;;;;5094468;28;20565;-65
2021/05/16 02:24:32;;;;;;;57.03;2.30;;;10.10;1.00;;;;;;5092750;28;20446;-65
2021/05/16 02:27:00;;;;;;;57.17;2.40;;;10.10;1.00;;;;;;5093902;28;20491;-66
2021/05/16 02:29:27;;;;;;;57.47;2.50;;;10.10;1.00;;;;;;5094439;28;20829;-66
2021/05/16 02:31:54;;;;;;;56.83;2.47;;;10.10;1.00;;;;;;5093818;28;20560;-65
2021/05/16 02:34:21;;;;;;;59.30;2.80;;;10.10;1.00;;;;;;5094635;28;20585;-65
2021/05/16 02:36:48;;;;;;;56.97;2.20;;;10.10;1.00;;;;;;5094349;28;20448;-65
2021/05/16 02:39:14;;;;;;;57.30;2.40;;;10.10;1.00;;;;;;5094523;28;20495;-66
2021/05/16 02:41:41;;;;;;;57.13;2.30;;;10.20;1.00;;;;;;5094265;28;21053;-66
2021/05/16 02:44:08;;;;;;;58.17;2.90;;;10.20;1.00;;;;;;5093647;28;20442;-65
2021/05/16 02:46:34;;;;;;;57.23;2.40;;;10.20;1.00;;;;;;5093643;28;20862;-65
2021/05/16 02:49:02;;;;;;;57.40;2.40;;;10.10;1.00;;;;;;5094236;28;20539;-66
2021/05/16 02:51:28;;;;;;;57.33;2.20;;;10.00;1.00;;;;;;5094031;28;20476;-65
2021/05/16 02:53:54;;;;;;;57.17;2.13;;;10.00;1.00;;;;;;5093797;28;20552;-66
2021/05/16 02:56:21;;;;;;;57.33;2.33;;;9.90;1.00;;;;;;5090710;28;20444;-66
2021/05/16 02:58:47;;;;;;;57.33;2.47;;;9.90;1.00;;;;;;5093640;28;20474;-66
2021/05/16 03:01:14;;;;;;;57.07;2.20;;;9.90;1.00;;;;;;5093779;28;20846;-66
2021/05/16 03:03:40;;;;;;;57.27;2.40;;;9.90;1.00;;;;;;5093293;28;20450;-66
2021/05/16 03:06:08;;;;;;;61.47;2.80;;;9.80;1.00;;;;;;5093931;28;20853;-66
2021/05/16 03:08:35;;;;;;;57.07;2.40;;;9.80;1.00;;;;;;5093714;28;20527;-67
2021/05/16 03:11:01;;;;;;;57.20;2.50;;;9.80;1.00;;;;;;5093548;28;20478;-66
2021/05/16 03:13:28;;;;;;;57.20;2.60;;;9.80;1.00;;;;;;5093090;28;20988;-66
2021/05/16 03:15:55;;;;;;;57.23;2.33;;;9.80;1.00;;;;;;5093858;28;20529;-66
2021/05/16 03:18:21;;;;;;;57.17;2.30;;;9.80;1.00;;;;;;5093794;28;20524;-66
2021/05/16 03:20:48;;;;;;;57.00;2.40;;;9.80;1.00;;;;;;5093523;28;20557;-66
2021/05/16 03:23:15;;;;;;;57.70;2.60;;;9.70;1.00;;;;;;5093047;28;20448;-66
2021/05/16 03:25:41;;;;;;;57.20;2.33;;;9.70;1.00;;;;;;5092172;28;20481;-66
2021/05/16 03:28:08;;;;;;;57.17;2.43;;;9.70;1.00;;;;;;5074295;28;20463;-66
2021/05/16 03:30:34;;;;;;;57.07;2.30;;;9.70;1.00;;;;;;5091955;28;20834;-66
2021/05/16 03:33:01;;;;;;;57.17;2.43;;;9.70;1.00;;;;;;5093062;28;20548;-66
2021/05/16 03:35:27;;;;;;;58.87;2.83;;;9.60;1.00;;;;;;5093024;28;20531;-66
2021/05/16 03:37:53;;;;;;;57.40;2.50;;;9.60;1.00;;;;;;5093027;28;20535;-66
2021/05/16 03:40:21;;;;;;;57.40;2.73;;;9.60;1.00;;;;;;5093233;28;20590;-66
2021/05/16 03:42:47;;;;;;;57.17;2.40;;;9.60;1.00;;;;;;5092553;28;21040;-65
2021/05/16 03:45:14;;;;;;;57.60;3.33;;;9.60;1.00;;;;;;5092775;28;20866;-65
2021/05/16 03:47:41;;;;;;;57.20;2.33;;;9.60;1.00;;;;;;5093066;28;20527;-66
2021/05/16 03:50:10;;;;;;;57.20;2.57;;;9.60;1.00;;;;;;5092901;28;20533;-66
2021/05/16 03:52:37;;;;;;;57.30;2.30;;;9.60;1.00;;;;;;5092481;28;20465;-65
2021/05/16 03:55:04;;;;;;;57.13;2.40;;;9.60;1.00;;;;;;5092587;28;20539;-65
2021/05/16 03:57:31;;;;;;;57.23;2.70;;;9.60;1.00;;;;;;5090970;28;20510;-66
2021/05/16 03:59:58;;;;;;;57.50;2.50;;;9.60;1.00;;;;;;5070817;28;20456;-65
2021/05/16 04:02:24;;;;;;;57.37;2.53;;;9.60;1.00;;;;;;5072167;28;20519;-66
2021/05/16 04:04:50;;;;;;;57.17;2.50;;;9.60;1.00;;;;;;5072221;28;20586;-65
2021/05/16 04:07:17;;;;;;;57.13;2.40;;;9.60;1.00;;;;;;5072263;28;20454;-65
2021/05/16 04:09:43;;;;;;;57.07;2.47;;;9.60;1.00;;;;;;5072003;28;20599;-66
2021/05/16 04:12:10;;;;;;;57.37;2.60;;;9.60;1.00;;;;;;5071611;28;20573;-66
2021/05/16 04:14:37;;;;;;;57.33;2.53;;;9.60;1.00;;;;;;5072026;28;20449;-66
2021/05/16 04:17:03;;;;;;;57.27;2.30;;;9.60;1.00;;;;;;5072142;28;20532;-66
2021/05/16 04:19:30;;;;;;;56.97;2.50;;;9.60;1.00;;;;;;5072084;28;20478;-66
2021/05/16 04:21:56;;;;;;;57.10;2.37;;;9.60;1.00;;;;;;5071698;28;20573;-66
2021/05/16 04:24:23;;;;;;;57.07;2.30;;;9.60;1.00;;;;;;5072161;28;20532;-66
2021/05/16 04:26:49;;;;;;;57.17;2.50;;;9.60;1.00;;;;;;5071800;28;20520;-67
2021/05/16 04:29:15;;;;;;;65.80;2.70;;;9.60;1.00;;;;;;5069424;28;20529;-67
2021/05/16 04:31:43;;;;;;;57.40;2.60;;;9.50;1.00;;;;;;5079908;28;20504;-67
2021/05/16 04:34:09;;;;;;;57.47;2.60;;;9.50;1.00;;;;;;5091104;28;20548;-67
2021/05/16 04:36:35;;;;;;;57.13;2.50;;;9.50;1.00;;;;;;5091950;28;20523;-67
2021/05/16 04:39:02;;;;;;;57.13;2.33;;;9.40;1.00;;;;;;5091819;28;20484;-67
2021/05/16 04:41:28;;;;;;;57.10;2.50;;;9.40;1.00;;;;;;5091929;28;20553;-67
2021/05/16 04:43:55;;;;;;;56.97;2.43;;;9.40;1.00;;;;;;5091295;28;20448;-67
2021/05/16 04:46:21;;;;;;;57.27;2.57;;;9.40;1.00;;;;;;5092093;28;20580;-67
2021/05/16 04:48:48;;;;;;;57.90;2.70;;;9.50;1.00;;;;;;5091785;28;20489;-65
2021/05/16 04:51:15;;;;;;;57.17;2.40;;;9.60;1.00;;;;;;5091671;28;20528;-66
2021/05/16 04:53:41;;;;;;;57.20;2.57;;;9.60;1.00;;;;;;5091133;28;21046;-67
2021/05/16 04:56:07;;;;;;;57.03;2.57;;;9.60;1.00;;;;;;5091821;28;20885;-65
2021/05/16 04:58:34;;;;;;;57.07;2.37;;;9.60;1.00;;;;;;5091614;28;20448;-66
2021/05/16 05:01:01;;;;;;;57.17;2.50;;;9.70;1.00;;;;;;5089105;28;20480;-66
2021/05/16 05:03:28;;;;;;;57.27;2.50;;;9.70;1.00;;;;;;5091221;28;20445;-65
2021/05/16 05:05:56;;;;;;;57.50;2.50;;;9.70;1.00;;;;;;5091456;28;20476;-65
2021/05/16 05:08:25;;;;;;;57.07;2.33;;;9.70;1.00;;;;;;5091390;28;20971;-65
2021/05/16 05:10:51;;;;;;;58.07;2.80;;;9.70;1.00;;;;;;5091685;28;20487;-65
2021/05/16 05:13:17;;;;;;;57.30;2.40;;;9.70;1.00;;;;;;5091345;28;20562;-65
2021/05/16 05:15:44;;;;;;;57.80;2.83;;;9.80;1.00;;;;;;5091336;28;20531;-65
2021/05/16 05:18:10;;;;;;;57.00;2.47;;;9.80;1.00;;;;;;5091463;28;20538;-65
2021/05/16 05:20:36;;;;;;;57.00;2.33;;;9.80;1.00;;;;;;5091050;28;20460;-65
2021/05/16 05:23:04;;;;;;;57.17;2.60;;;9.80;1.00;;;;;;5091088;28;20449;-66
2021/05/16 05:25:30;;;;;;;58.10;2.80;;;9.90;1.00;;;;;;5091383;28;20552;-65
2021/05/16 05:27:57;;;;;;;57.20;2.53;;;9.90;1.00;;;;;;5091325;28;20454;-65
2021/05/16 05:30:25;;;;;;;57.07;2.37;;;10.00;1.00;;;;;;5091303;28;21176;-65
2021/05/16 05:32:51;;;;;;;57.07;2.30;;;10.10;1.00;;;;;;5071117;28;20453;-65
2021/05/16 05:35:18;;;;;;;57.10;2.23;;;10.20;1.00;;;;;;5091046;28;20449;-65
2021/05/16 05:37:45;;;;;;;56.97;2.37;;;10.30;1.00;;;;;;5091485;28;20539;-65
2021/05/16 05:40:13;;;;;;;57.20;2.40;;;10.30;1.00;;;;;;5091305;28;20539;-64
2021/05/16 05:42:40;;;;;;;57.30;2.37;;;10.40;1.00;;;;;;5091100;28;20556;-64
2021/05/16 05:45:09;;;;;;;56.87;2.43;;;10.50;1.00;;;;;;5092581;28;20451;-65
2021/05/16 05:47:36;;;;;;;57.27;2.23;;;10.50;1.00;;;;;;5095109;28;20492;-65
2021/05/16 05:50:03;;;;;;;57.20;2.40;;;10.60;1.00;;;;;;5095439;28;20529;-65
2021/05/16 05:52:29;;;;;;;56.87;2.33;;;10.60;1.00;;;;;;5094726;28;21038;-66
2021/05/16 05:54:56;;;;;;;56.87;2.30;;;10.70;1.00;;;;;;5094999;28;20456;-66
2021/05/16 05:57:23;;;;;;;57.17;2.40;;;10.70;1.00;;;;;;5095120;28;20676;-66
2021/05/16 05:59:49;;;;;;;57.30;2.30;;;10.60;1.00;;;;;;5095112;28;20506;-67
2021/05/16 06:02:16;;;;;;;56.87;2.40;;;10.50;1.00;;;;;;5086487;28;21001;-67
2021/05/16 06:04:42;;;;;;;57.17;2.20;;;10.30;1.00;;;;;;5082497;28;20456;-67
2021/05/16 06:07:08;;;;;;;57.07;2.30;;;10.20;1.00;;;;;;5094998;28;20567;-67
2021/05/16 06:09:36;;;;;;;57.27;2.30;;;10.10;1.00;;;;;;5095068;28;20507;-67
2021/05/16 06:12:04;;;;;;;56.97;2.30;;;10.00;1.00;;;;;;5094519;28;20476;-68
2021/05/16 06:14:32;;;;;;;57.17;2.60;;;10.00;1.00;;;;;;5094772;28;20953;-67
2021/05/16 06:16:58;;;;;;;57.03;2.37;;;10.00;1.00;;;;;;5094593;28;20532;-67
2021/05/16 06:19:24;;;;;;;57.07;2.30;;;10.10;1.00;;;;;;5095007;28;21029;-67
2021/05/16 06:21:51;;;;;;;57.20;2.70;;;10.10;1.00;;;;;;5094341;28;20867;-67
2021/05/16 06:24:17;;;;;;;57.03;2.33;;;10.20;1.00;;;;;;5094536;28;20468;-67
2021/05/16 06:26:45;;;;;;;56.97;2.10;;;10.30;1.00;;;;;;5094573;28;20487;-66
2021/05/16 06:29:12;;;;;;;57.00;2.30;;;10.40;1.00;;;;;;5094383;28;20543;-66
2021/05/16 06:31:41;;;;;;;56.93;2.40;;;10.50;1.00;;;;;;5094419;28;20558;-66
2021/05/16 06:34:08;;;;;;;57.17;2.60;;;10.60;1.00;;;;;;5090723;28;20458;-66
2021/05/16 06:36:35;;;;;;;57.20;2.30;;;10.60;1.00;;;;;;5094324;28;20477;-66
2021/05/16 06:39:01;;;;;;;56.80;2.30;;;10.50;1.00;;;;;;5094189;28;20446;-66
2021/05/16 06:41:28;;;;;;;57.20;2.30;;;10.50;1.00;;;;;;5094403;28;20480;-66
2021/05/16 06:43:54;;;;;;;57.07;2.33;;;10.50;1.00;;;;;;5093592;28;20441;-66
2021/05/16 06:46:21;;;;;;;57.20;2.23;;;10.50;1.00;;;;;;5088010;28;20518;-65
2021/05/16 06:48:48;;;;;;;56.87;2.20;;;10.50;1.00;;;;;;5084674;28;20468;-65
2021/05/16 06:51:15;;;;;;;57.23;2.30;;;10.60;1.00;;;;;;5083883;28;20463;-65
2021/05/16 06:53:41;;;;;;;57.10;2.40;;;10.80;1.00;;;;;;5082256;28;20536;-65
2021/05/16 06:56:11;;;;;;;57.00;2.33;;;10.90;1.00;;;;;;5082213;28;20936;-65
2021/05/16 06:58:38;;;;;;;57.27;2.30;;;11.10;1.00;;;;;;5088162;28;20753;-65
2021/05/16 07:01:04;;;;;;;57.17;2.37;;;11.20;1.00;;;;;;5094095;28;20552;-65
2021/05/16 07:03:31;;;;;;;57.00;2.30;;;11.40;1.00;;;;;;5093371;28;20536;-65
2021/05/16 07:05:58;;;;;;;57.40;2.40;;;11.40;1.00;;;;;;5091523;28;20568;-65
2021/05/16 07:08:25;;;;;;;57.20;2.40;;;11.60;1.00;;;;;;5093609;28;20453;-65
2021/05/16 07:10:51;;;;;;;57.07;2.20;;;11.70;1.00;;;;;;5093392;28;20531;-65
2021/05/16 07:13:17;;;;;;;56.93;2.17;;;12.00;1.00;;;;;;5093490;28;20913;-65
2021/05/16 07:15:44;;;;;;;57.40;2.30;;;12.10;1.00;;;;;;5093394;28;20990;-65
2021/05/16 07:18:10;;;;;;;57.03;2.63;;;12.20;1.00;;;;;;5093914;28;20549;-65
2021/05/16 07:20:36;;;;;;;56.93;2.20;;;12.30;1.00;;;;;;5093555;28;20470;-66
2021/05/16 07:23:04;;;;;;;57.07;2.17;;;12.40;1.00;;;;;;5093172;28;20540;-65
2021/05/16 07:25:30;;;;;;;56.90;2.20;;;12.50;1.00;;;;;;5092905;28;20573;-65
2021/05/16 07:27:58;;;;;;;57.57;2.50;;;12.60;1.00;;;;;;5093647;28;20533;-65
2021/05/16 07:30:25;;;;;;;57.07;2.20;;;12.80;1.00;;;;;;5093167;28;20442;-65
2021/05/16 07:32:51;;;;;;;57.17;2.30;;;13.00;1.00;;;;;;5093081;28;20536;-66
2021/05/16 07:35:18;;;;;;;56.87;2.20;;;13.00;1.00;;;;;;5093240;28;20537;-66
2021/05/16 07:37:44;;;;;;;56.90;2.30;;;12.90;1.00;;;;;;5090976;28;20556;-67
2021/05/16 07:40:13;;;;;;;56.87;2.23;;;12.80;1.00;;;;;;5092616;28;20448;-66
2021/05/16 07:42:40;;;;;;;57.10;2.20;;;12.60;1.00;;;;;;5092962;28;20926;-66
2021/05/16 07:45:07;;;;;;;57.00;2.23;;;12.50;1.00;;;;;;5093088;28;20446;-66
2021/05/16 07:47:34;;;;;;;57.10;2.27;;;12.50;1.00;;;;;;5092906;28;20533;-66
2021/05/16 07:50:00;;;;;;;57.47;2.47;;;12.40;1.00;;;;;;5093231;28;20442;-66
2021/05/16 07:52:27;;;;;;;57.00;2.33;;;12.40;1.00;;;;;;5092500;28;20496;-66
2021/05/16 07:54:53;;;;;;;57.07;2.10;;;12.40;1.00;;;;;;5093034;28;21000;-66
2021/05/16 07:57:21;;;;;;;57.07;2.23;;;12.40;1.00;;;;;;5093121;28;20868;-67
2021/05/16 07:59:47;;;;;;;56.97;2.20;;;12.50;1.00;;;;;;5092648;28;20438;-66
2021/05/16 08:02:13;;;;;;;57.07;2.20;;;12.70;1.00;;;;;;5092447;28;20462;-66
2021/05/16 08:04:40;;;;;;;57.00;2.20;;;12.90;1.00;;;;;;5093012;28;20580;-66
2021/05/16 08:07:06;;;;;;;56.87;2.20;;;13.10;1.00;;;;;;5091688;28;20474;-66
2021/05/16 08:09:32;;;;;;;56.97;2.20;;;13.30;1.00;;;;;;5090397;28;20442;-66
2021/05/16 08:11:59;;;;;;;56.97;2.30;;;13.40;1.00;;;;;;5091848;28;20986;-66
2021/05/16 08:14:28;;;;;;;56.83;2.20;;;13.50;1.00;;;;;;5092672;28;20443;-66
2021/05/16 08:16:54;;;;;;;57.17;2.30;;;13.70;1.00;;;;;;5092287;28;20966;-66
2021/05/16 08:19:20;;;;;;;57.47;2.63;;;13.90;1.00;;;;;;5092952;28;20784;-66
2021/05/16 08:21:47;;;;;;;56.97;2.20;;;13.90;1.00;;;;;;5092132;28;20467;-65
2021/05/16 08:24:14;;;;;;;56.77;2.20;;;13.60;1.00;;;;;;5092034;28;20477;-66
2021/05/16 08:26:42;;;;;;;57.17;2.30;;;13.30;1.00;;;;;;5092181;28;20562;-65
2021/05/16 08:29:09;;;;;;;57.00;2.27;;;12.90;1.00;;;;;;5092408;28;20856;-65
2021/05/16 08:31:36;;;;;;;57.07;2.33;;;12.60;1.00;;;;;;5092428;28;20886;-66
2021/05/16 08:34:04;;;;;;;56.97;2.30;;;12.50;1.00;;;;;;5091683;28;20799;-65
2021/05/16 08:36:32;;;;;;;58.07;2.40;;;12.40;1.00;;;;;;5092024;28;20451;-66
2021/05/16 08:38:59;;;;;;;57.50;2.50;;;12.40;1.00;;;;;;5092036;28;21037;-66
2021/05/16 08:41:26;;;;;;;62.90;2.90;;;12.40;1.00;;;;;;5090105;28;20554;-66
2021/05/16 08:43:53;;;;;;;57.03;2.13;;;12.70;1.00;;;;;;5091375;28;20443;-65
2021/05/16 08:46:19;;;;;;;56.77;2.20;;;12.90;1.00;;;;;;5091801;28;20524;-66
2021/05/16 08:48:46;;;;;;;57.00;2.30;;;13.00;1.00;;;;;;5091978;28;20446;-66
2021/05/16 08:51:15;;;;;;;56.77;2.50;;;13.10;1.00;;;;;;5092309;28;20493;-65
2021/05/16 08:53:42;;;;;;;57.40;3.07;;;13.10;1.00;;;;;;5091630;28;20446;-66
2021/05/16 08:56:08;;;;;;;57.20;2.80;;;13.10;1.00;;;;;;5091889;28;20438;-66
2021/05/16 08:58:35;;;;;;;56.93;2.23;;;13.10;1.00;;;;;;5091733;28;20945;-65
2021/05/16 09:01:01;;;;;;;59.60;2.60;;;13.20;1.00;;;;;;5091750;28;20466;-66
2021/05/16 09:03:29;;;;;;;56.93;2.17;;;13.20;1.00;;;;;;5091337;28;20513;-66
2021/05/16 09:05:56;;;;;;;56.93;2.20;;;13.30;1.00;;;;;;5091576;28;21001;-65
2021/05/16 09:08:24;;;;;;;57.27;3.00;;;13.40;1.00;;;;;;5091724;28;20546;-65
2021/05/16 09:10:55;;;;;;;57.00;2.10;;;13.50;1.00;;;;;;5091627;28;20900;-65
2021/05/16 09:13:23;;;;;;;56.77;2.10;;;13.50;1.00;;;;;;5085312;28;20455;-66
2021/05/16 09:16:01;;;;;;;57.07;2.10;;;13.60;1.00;;;;;;5071036;28;21026;-66
2021/05/16 09:18:38;;;;;;;57.73;2.27;;;13.90;1.00;;;;;;5072761;28;20472;-66
2021/05/16 09:21:22;;;;;;;58.23;2.10;;;14.20;1.00;;;;;;5078139;28;20593;-66
2021/05/16 09:23:50;;;;;;;57.07;2.30;;;14.30;1.00;;;;;;5077639;28;20462;-65
2021/05/16 09:26:16;;;;;;;57.13;2.30;;;14.40;1.00;;;;;;5077865;28;20528;-66
2021/05/16 09:28:43;;;;;;;57.07;2.30;;;14.60;1.00;;;;;;5077788;28;20534;-65
2021/05/16 09:31:09;;;;;;;57.13;2.33;;;14.90;1.00;;;;;;5077791;28;20496;-66
2021/05/16 09:33:35;;;;;;;57.20;2.40;;;15.30;1.00;;;;;;5077638;28;20539;-65
2021/05/16 09:36:05;;;;;;;57.63;2.83;;;15.60;1.00;;;;;;5078040;28;20882;-65
2021/05/16 09:38:33;;;;;;;56.87;2.30;;;15.80;1.00;;;;;;5077759;28;21111;-65
2021/05/16 09:41:00;;;;;;;57.17;2.30;;;15.80;1.00;;;;;;5077660;28;20471;-66
2021/05/16 09:43:27;;;;;;;56.83;2.20;;;15.80;1.00;;;;;;5077673;28;20822;-66
2021/05/16 09:46:00;;;;;;;57.10;2.40;;;15.60;1.00;;;;;;5075212;28;21093;-66
2021/05/16 09:48:30;;;;;;;57.10;2.20;;;15.80;1.00;;;;;;5077581;28;20453;-66
2021/05/16 09:51:11;;;;;;;56.90;2.13;;;16.00;1.00;;;;;;5077697;28;20496;-66
2021/05/16 09:54:06;;;;;;;56.77;2.10;;;16.20;1.00;;;;;;5077179;28;20535;-65
2021/05/16 09:56:36;;;;;;;56.67;2.20;;;16.30;1.00;;;;;;5064189;28;20910;-65
2021/05/16 09:59:04;;;;;;;58.47;2.20;;;16.40;1.00;;;;;;5077782;28;20537;-65
2021/05/16 10:01:31;;;;;;;56.77;2.13;;;16.40;1.00;;;;;;5077764;28;20837;-65
2021/05/16 10:03:59;;;;;;;56.90;2.10;;;16.30;1.00;;;;;;5077095;28;20798;-66
2021/05/16 10:06:26;;;;;;;56.77;2.20;;;16.20;1.00;;;;;;5077569;28;20484;-66
2021/05/16 10:08:53;;;;;;;56.77;2.20;;;16.00;1.00;;;;;;5077392;28;20541;-65
2021/05/16 10:11:22;;;;;;;57.30;2.40;;;15.80;1.00;;;;;;5077460;28;21012;-66
2021/05/16 10:13:55;;;;;;;57.20;2.40;;;16.30;1.00;;;;;;5077157;28;21012;-67
2021/05/16 10:16:22;;;;;;;56.83;2.10;;;17.30;1.00;;;;;;5077475;28;20443;-66
2021/05/16 10:18:52;;;;;;;56.33;2.00;;;17.80;1.00;;;;;;5076045;28;20985;-65
2021/05/16 10:21:23;;;;;;;56.97;2.10;;;17.70;1.00;;;;;;5097666;28;20549;-65
2021/05/16 10:24:07;;;;;;;56.67;2.10;;;17.50;1.00;;;;;;5097327;28;20460;-66
2021/05/16 10:26:35;;;;;;;56.57;2.10;;;17.30;1.00;;;;;;5097662;28;20474;-66
2021/05/16 10:29:04;;;;;;;56.80;2.10;;;18.70;1.00;;;;;;5097446;28;20525;-66
2021/05/16 10:32:06;;;;;;;57.00;2.17;;;20.40;1.00;;;;;;5094678;28;20551;-67
2021/05/16 10:34:41;;;;;;;56.93;2.30;;;21.20;1.00;;;;;;5094415;28;20821;-66
2021/05/16 10:37:10;;;;;;;56.90;2.43;;;21.00;1.00;;;;;;5094658;28;20498;-64
2021/05/16 10:39:49;;;;;;;56.67;2.07;;;21.80;1.00;;;;;;5094122;28;20510;-64
2021/05/16 10:42:17;;;;;;;56.83;2.23;;;22.10;1.00;;;;;;5094055;28;20501;-66
2021/05/16 10:44:56;;;;;;;56.70;2.10;;;21.40;1.00;;;;;;5094038;28;21001;-66
2021/05/16 10:47:54;;;;;;;56.90;2.00;;;20.50;1.00;;;;;;5093281;28;20565;-66
2021/05/16 10:50:39;;;;;;;57.20;2.00;;;19.80;1.00;;;;;;5091642;28;20451;-66
2021/05/16 10:53:08;;;;;;;59.27;2.77;;;19.30;1.00;;;;;;5093836;28;20823;-66
2021/05/16 10:55:36;;;;;;;56.77;2.03;;;19.00;1.00;;;;;;5093870;28;20467;-66
2021/05/16 10:58:04;;;;;;;57.27;2.17;;;19.00;1.00;;;;;;5093872;28;20479;-66
2021/05/16 11:00:32;;;;;;;56.77;2.00;;;20.00;1.00;;;;;;5093956;28;21000;-66
2021/05/16 11:03:04;;;;;;;60.23;2.20;;;21.10;1.00;;;;;;5093751;28;20470;-66
2021/05/16 11:05:56;;;;;;;56.80;2.07;;;21.40;1.00;;;;;;5093646;28;21118;-66
2021/05/16 11:09:09;;;;;;;56.70;2.10;;;21.70;1.00;;;;;;5093733;28;20498;-66
2021/05/16 11:12:01;;;;;;;56.77;2.30;;;22.00;1.00;;;;;;5093777;28;20482;-66
2021/05/16 11:14:39;;;;;;;57.00;2.20;;;21.80;1.00;;;;;;5093512;28;20470;-66
2021/05/16 11:17:07;;;;;;;57.27;2.10;;;22.90;1.00;;;;;;5093739;28;20444;-65
2021/05/16 11:19:35;;;;;;;58.07;2.13;;;24.50;1.00;;;;;;5093906;28;20906;-64
2021/05/16 11:22:13;;;;;;;57.00;2.00;;;24.90;1.00;;;;;;5091181;28;20473;-64
2021/05/16 11:24:48;;;;;;;56.83;2.10;;;24.20;1.00;;;;;;5077926;28;20490;-64
2021/05/16 11:27:28;;;;;;;57.10;2.20;;;23.50;1.00;;;;;;5072881;28;20482;-66
2021/05/16 11:29:59;;;;;;;56.87;2.20;;;22.50;1.00;;;;;;5073189;28;20451;-64
2021/05/16 11:32:30;;;;;;;56.77;2.07;;;22.80;1.00;;;;;;5072946;28;20558;-65
2021/05/16 11:35:18;;;;;;;56.83;2.20;;;24.40;1.00;;;;;;5072770;28;20960;-66
2021/05/16 11:37:47;;;;;;;56.90;2.00;;;26.20;1.00;;;;;;5072752;28;20444;-66
2021/05/16 11:40:24;;;;;;;56.83;1.93;;;27.60;1.00;;;;;;5073086;28;20944;-65
2021/05/16 11:43:01;;;;;;;56.90;1.90;;;28.50;1.00;;;;;;5071328;28;20479;-66
2021/05/16 11:45:30;;;;;;;56.83;2.00;;;28.80;1.00;;;;;;5072529;28;20497;-66
2021/05/16 11:47:56;;;;;;;56.97;2.00;;;29.10;1.00;;;;;;5072707;28;20569;-66
2021/05/16 11:50:41;;;;;;;56.70;1.80;;;29.60;1.00;;;;;;5072574;28;20490;-66
2021/05/16 11:53:08;;;;;;;56.80;1.90;;;30.20;1.00;;;;;;5078513;28;20533;-66
2021/05/16 11:55:34;;;;;;;56.90;1.90;;;29.40;1.00;;;;;;5081494;28;20458;-66
2021/05/16 11:58:01;;;;;;;56.50;1.90;;;27.70;1.00;;;;;;5072815;28;20455;-66
2021/05/16 12:00:30;;;;;;;57.27;1.80;;;26.70;1.00;;;;;;5072343;28;20501;-65
2021/05/16 12:03:11;;;;;;;56.93;1.90;;;25.60;1.00;;;;;;5072335;28;20560;-66
2021/05/16 12:05:38;;;;;;;56.97;1.90;;;24.80;1.00;;;;;;5072375;28;20477;-66
2021/05/16 12:08:18;;;;;;;57.07;2.30;;;24.80;1.00;;;;;;5072511;28;20532;-66
2021/05/16 12:10:45;;;;;;;56.73;1.77;;;25.10;1.00;;;;;;5072140;28;20564;-65
2021/05/16 12:13:24;;;;;;;56.87;1.93;;;26.20;1.00;;;;;;5071776;28;21042;-65
2021/05/16 12:15:52;;;;;;;56.67;1.90;;;26.00;1.00;;;;;;5072000;28;21001;-65
2021/05/16 12:18:20;;;;;;;57.00;1.90;;;25.90;1.00;;;;;;5072300;28;20531;-65
2021/05/16 12:20:57;;;;;;;56.90;1.90;;;25.30;1.00;;;;;;5072230;28;20545;-65
2021/05/16 12:23:23;;;;;;;56.80;1.80;;;25.00;1.00;;;;;;5072294;28;20884;-65
2021/05/16 12:25:50;;;;;;;57.10;2.40;;;24.40;1.00;;;;;;5071666;28;20447;-66
2021/05/16 12:28:16;;;;;;;57.50;2.33;;;23.90;1.00;;;;;;5072183;28;20530;-65
2021/05/16 12:30:44;;;;;;;56.80;1.83;;;24.60;1.00;;;;;;5072051;28;20844;-66
2021/05/16 12:33:11;;;;;;;57.50;2.20;;;25.20;1.00;;;;;;5071775;28;20447;-65
2021/05/16 12:35:38;;;;;;;57.07;1.90;;;26.20;1.00;;;;;;5071785;28;20448;-65
2021/05/16 12:38:10;;;;;;;56.87;2.20;;;25.90;1.00;;;;;;5071800;28;20948;-66
2021/05/16 12:40:37;;;;;;;56.57;1.77;;;25.10;1.00;;;;;;5069799;28;21078;-65
2021/05/16 12:43:04;;;;;;;57.10;2.40;;;24.00;1.00;;;;;;5071457;28;20456;-66
2021/05/16 12:45:31;;;;;;;57.10;2.10;;;23.00;1.00;;;;;;5071527;28;20534;-65
2021/05/16 12:47:58;;;;;;;57.30;2.10;;;22.40;1.00;;;;;;5071556;28;20483;-66
2021/05/16 12:50:34;;;;;;;56.67;2.20;;;21.80;1.00;;;;;;5071547;28;20825;-66
2021/05/16 12:53:26;;;;;;;56.87;2.30;;;21.30;1.00;;;;;;5071354;28;20536;-65
2021/05/16 12:55:53;;;;;;;57.30;2.23;;;20.80;1.00;;;;;;5071510;28;20447;-65
2021/05/16 12:58:24;;;;;;;57.90;2.67;;;20.50;1.00;;;;;;5071696;28;20535;-65